Metlakatla, Alaska
Current Conditions -  °F | °C
As of 7:16 PM on Sunday 25 Jan 2015 (Local Time) from PAMM Reporting Station
Overcast Overcast  
Wind Chill:   Ceiling: 4300
Heat Index:   Visibility: 10mi
Dew Point:   Wind: 3mph
Humidity: 87%   Direction: 100°E
Pressure: 29.95"   Gusts: NA
Location:  55.11°N, 131.58°W
Report Text: PAMM 260416Z AUTO 10003KT 10SM OVC043 06/04 A2995 RMK AO1
Loading
Personal Weather Stations






























Interactive Weather Map New forecast layout! Learn more

10-Day Weather Forecast

Advertisements
Track Severe Weather on mobile